Time;durP1;ratioP1;P1;durP2;ratioP2;P2;SDS_P1;SDS_P2;PMS_P1;PMS_P2;Temp;Humidity;BMP_temperature;BMP_pressure;BME280_temperature;BME280_humidity;BME280_pressure;Samples;Min_cycle;Max_cycle;Signal;HPM_P1;HPM_P2
2023/09/30 00:00:54;;;;;;;9.85;3.30;;;;;;;14.63;100.00;93892.44;2081336;28;20021;-82
2023/09/30 00:01:55;;;;;;;7.28;2.42;;;;;;;14.70;100.00;93891.50;2097963;28;20441;-81
2023/09/30 00:02:56;;;;;;;12.48;3.90;;;;;;;14.94;100.00;93900.13;2097872;28;20044;-82
2023/09/30 00:03:57;;;;;;;10.50;3.50;;;;;;;14.83;100.00;93911.16;2090576;28;20029;-81
2023/09/30 00:04:58;;;;;;;9.40;3.92;;;;;;;14.83;100.00;93905.78;2089425;28;20438;-82
2023/09/30 00:05:59;;;;;;;9.63;3.03;;;;;;;14.91;100.00;93906.34;2086524;28;20297;-81
2023/09/30 00:07:00;;;;;;;15.02;3.95;;;;;;;14.71;100.00;93903.78;2089730;28;20044;-81
2023/09/30 00:08:01;;;;;;;8.27;3.03;;;;;;;14.55;100.00;93904.53;2089604;28;20052;-80
2023/09/30 00:09:03;;;;;;;6.53;2.75;;;;;;;14.66;100.00;93909.66;2087122;28;20044;-82
2023/09/30 00:10:04;;;;;;;11.30;3.28;;;;;;;14.62;100.00;93912.47;2081355;28;20026;-82
2023/09/30 00:11:06;;;;;;;10.00;3.10;;;;;;;14.52;100.00;93906.13;2080811;28;20028;-81
2023/09/30 00:12:08;;;;;;;10.82;3.58;;;;;;;14.63;100.00;93899.75;2084027;28;20410;-80
2023/09/30 00:13:10;;;;;;;9.57;3.50;;;;;;;14.73;100.00;93896.78;2089984;28;20120;-81
2023/09/30 00:14:11;;;;;;;7.53;2.55;;;;;;;14.68;100.00;93894.63;2106203;28;20020;-82
2023/09/30 00:15:12;;;;;;;10.82;2.90;;;;;;;14.58;100.00;93882.94;2089447;28;20028;-81
2023/09/30 00:16:13;;;;;;;9.63;3.42;;;;;;;14.66;100.00;93896.19;2094876;28;20024;-82
2023/09/30 00:17:15;;;;;;;12.88;2.90;;;;;;;14.75;100.00;93888.28;2106257;28;20024;-81
2023/09/30 00:18:15;;;;;;;13.05;3.65;;;;;;;14.65;100.00;93886.63;2097802;28;20025;-79
2023/09/30 00:19:16;;;;;;;12.10;3.35;;;;;;;14.48;100.00;93886.63;2081492;28;20136;-82
2023/09/30 00:20:17;;;;;;;9.60;3.53;;;;;;;14.50;100.00;93892.34;2097398;28;20103;-81
2023/09/30 00:21:18;;;;;;;12.38;3.70;;;;;;;14.56;100.00;93889.91;2094711;28;20094;-81
2023/09/30 00:22:19;;;;;;;6.53;2.92;;;;;;;14.57;100.00;93888.72;2081350;28;20068;-80
2023/09/30 00:23:21;;;;;;;11.18;3.97;;;;;;;14.50;100.00;93886.22;2080856;28;20068;-81
2023/09/30 00:24:22;;;;;;;10.57;3.22;;;;;;;14.47;100.00;93885.09;2081154;28;20048;-82
2023/09/30 00:25:23;;;;;;;12.15;3.17;;;;;;;14.55;100.00;93886.47;2081464;28;20072;-81
2023/09/30 00:26:24;;;;;;;8.98;3.10;;;;;;;14.46;100.00;93872.81;2089098;28;20441;-81
2023/09/30 00:27:25;;;;;;;8.43;3.10;;;;;;;14.35;100.00;93877.69;2081351;28;20485;-79
2023/09/30 00:28:26;;;;;;;12.48;3.15;;;;;;;14.29;100.00;93880.16;2087336;28;20481;-81
2023/09/30 00:29:27;;;;;;;8.90;3.15;;;;;;;14.25;100.00;93882.16;2080176;28;20060;-82
2023/09/30 00:30:28;;;;;;;10.20;3.33;;;;;;;14.20;100.00;93876.53;2073093;28;20026;-81
2023/09/30 00:31:31;;;;;;;9.63;3.00;;;;;;;14.16;100.00;93878.53;2094130;28;20481;-81
2023/09/30 00:32:33;;;;;;;8.15;3.03;;;;;;;14.18;100.00;93887.72;2114716;28;20023;-81
2023/09/30 00:33:34;;;;;;;10.57;3.40;;;;;;;14.31;100.00;93883.19;2097463;28;20646;-82
2023/09/30 00:34:35;;;;;;;10.18;3.17;;;;;;;14.31;100.00;93880.50;2080999;28;20144;-81
2023/09/30 00:35:37;;;;;;;12.98;3.55;;;;;;;14.29;100.00;93887.47;2073214;28;20037;-81
2023/09/30 00:36:38;;;;;;;8.13;3.55;;;;;;;14.22;100.00;93882.22;2085899;28;20024;-80
2023/09/30 00:37:39;;;;;;;9.13;3.08;;;;;;;14.06;100.00;93880.31;2089619;28;20087;-80
2023/09/30 00:38:40;;;;;;;9.18;3.60;;;;;;;14.03;100.00;93886.50;2087519;28;20029;-82
2023/09/30 00:39:41;;;;;;;12.13;3.45;;;;;;;13.91;100.00;93882.53;2081075;28;20500;-81
2023/09/30 00:40:49;;;;;;;9.40;2.92;;;;;;;13.99;100.00;93881.22;2072790;28;20022;-81
2023/09/30 00:41:50;;;;;;;9.82;3.40;;;;;;;14.09;100.00;93882.91;2084021;28;20079;-81
2023/09/30 00:42:50;;;;;;;9.68;3.20;;;;;;;14.02;100.00;93880.38;2091646;28;20526;-80
2023/09/30 00:43:51;;;;;;;9.52;2.85;;;;;;;14.08;100.00;93880.63;2104299;28;20031;-82
2023/09/30 00:44:52;;;;;;;8.18;2.83;;;;;;;14.17;100.00;93880.06;2099539;28;20054;-80
2023/09/30 00:46:05;;;;;;;12.75;3.30;;;;;;;14.17;100.00;93880.81;2112255;28;20437;-82
2023/09/30 00:47:06;;;;;;;8.23;3.08;;;;;;;14.23;100.00;93870.31;2104899;28;20066;-81
2023/09/30 00:48:07;;;;;;;8.73;3.20;;;;;;;14.18;100.00;93868.91;2097118;28;20044;-82
2023/09/30 00:49:10;;;;;;;14.48;3.17;;;;;;;14.03;100.00;93867.69;2105681;28;20028;-80
2023/09/30 00:50:12;;;;;;;10.23;3.05;;;;;;;13.93;100.00;93871.38;2102656;28;20389;-80
2023/09/30 00:51:13;;;;;;;10.52;3.20;;;;;;;13.73;100.00;93869.50;2086429;28;20041;-81
2023/09/30 00:52:14;;;;;;;9.18;2.95;;;;;;;13.71;100.00;93871.84;2077104;28;20014;-80
2023/09/30 00:53:15;;;;;;;8.60;2.70;;;;;;;13.68;100.00;93872.69;2080962;28;20025;-81
2023/09/30 00:54:17;;;;;;;13.13;3.40;;;;;;;13.74;100.00;93870.25;2089329;28;20021;-81
2023/09/30 00:55:19;;;;;;;12.13;3.55;;;;;;;13.72;100.00;93872.59;2089185;28;20752;-81
2023/09/30 00:56:25;;;;;;;10.82;3.65;;;;;;;13.63;100.00;93867.03;2073051;28;20022;-78
2023/09/30 00:57:27;;;;;;;9.40;2.97;;;;;;;13.46;100.00;93864.31;2089934;28;20025;-79
2023/09/30 00:58:30;;;;;;;10.32;2.95;;;;;;;13.53;100.00;93866.09;2094373;28;20692;-79
2023/09/30 00:59:32;;;;;;;10.90;3.47;;;;;;;13.46;100.00;93860.88;2105966;28;20030;-81
2023/09/30 01:00:33;;;;;;;9.73;3.38;;;;;;;13.43;100.00;93869.75;2097543;28;20500;-81
2023/09/30 01:01:34;;;;;;;8.35;2.70;;;;;;;13.54;100.00;93873.75;2080907;28;20025;-81
2023/09/30 01:02:37;;;;;;;11.15;3.17;;;;;;;13.46;100.00;93876.97;2088772;28;20481;-81
2023/09/30 01:03:38;;;;;;;11.38;2.97;;;;;;;13.25;100.00;93878.91;2080146;28;20084;-80
2023/09/30 01:04:40;;;;;;;9.45;3.58;;;;;;;13.23;100.00;93875.91;2081879;28;20033;-81
2023/09/30 01:05:42;;;;;;;10.07;2.90;;;;;;;13.11;100.00;93881.84;2089037;28;21743;-81
2023/09/30 01:06:43;;;;;;;11.23;3.05;;;;;;;13.03;100.00;93878.53;2083671;28;20556;-80
2023/09/30 01:07:44;;;;;;;9.18;3.22;;;;;;;12.96;100.00;93886.75;2077016;28;20022;-80
2023/09/30 01:08:45;;;;;;;12.18;3.40;;;;;;;12.94;100.00;93881.00;2076546;28;20060;-81
2023/09/30 01:09:46;;;;;;;10.32;3.33;;;;;;;12.91;100.00;93876.50;2074393;28;20471;-80
2023/09/30 01:10:48;;;;;;;8.02;3.00;;;;;;;12.95;100.00;93881.78;2081007;28;20138;-82
2023/09/30 01:11:49;;;;;;;8.15;3.28;;;;;;;12.96;100.00;93876.00;2089119;28;20501;-82
2023/09/30 01:12:50;;;;;;;10.20;3.28;;;;;;;12.82;100.00;93879.72;2089139;28;20420;-80
2023/09/30 01:13:51;;;;;;;10.25;3.22;;;;;;;12.85;100.00;93875.44;2084788;28;20021;-80
2023/09/30 01:14:57;;;;;;;12.52;3.70;;;;;;;12.65;100.00;93880.78;2082153;28;20025;-81
2023/09/30 01:15:58;;;;;;;9.93;2.70;;;;;;;12.62;100.00;93881.59;2074502;28;20509;-81
2023/09/30 01:16:59;;;;;;;9.40;3.13;;;;;;;12.56;100.00;93875.94;2095295;28;20090;-81
2023/09/30 01:18:00;;;;;;;9.70;3.10;;;;;;;12.52;100.00;93885.97;2101062;28;20096;-81
2023/09/30 01:19:02;;;;;;;9.27;2.70;;;;;;;12.55;100.00;93879.03;2089008;28;20362;-81
2023/09/30 01:20:08;;;;;;;11.82;3.38;;;;;;;12.43;100.00;93879.63;2085745;28;20083;-80
2023/09/30 01:21:10;;;;;;;12.85;3.33;;;;;;;12.34;100.00;93880.16;2094042;28;20047;-79
2023/09/30 01:22:11;;;;;;;9.27;2.90;;;;;;;12.38;100.00;93878.16;2102869;28;20060;-80
2023/09/30 01:23:12;;;;;;;11.20;3.17;;;;;;;12.39;100.00;93881.59;2099859;28;20052;-79
2023/09/30 01:24:14;;;;;;;8.30;3.30;;;;;;;12.21;100.00;93879.22;2092919;28;20021;-81
2023/09/30 01:25:15;;;;;;;10.15;2.85;;;;;;;12.22;100.00;93881.47;2078784;28;20021;-79
2023/09/30 01:26:16;;;;;;;13.00;3.28;;;;;;;12.20;100.00;93872.31;2089083;28;20016;-79
2023/09/30 01:27:19;;;;;;;9.68;2.88;;;;;;;12.22;100.00;93881.47;2081217;28;20056;-82
2023/09/30 01:28:21;;;;;;;8.40;2.75;;;;;;;12.16;100.00;93885.00;2082598;28;20030;-81
2023/09/30 01:29:26;;;;;;;6.68;2.38;;;;;;;12.22;100.00;93886.09;2089386;28;20060;-81
2023/09/30 01:30:26;;;;;;;8.80;2.78;;;;;;;12.17;100.00;93891.91;2082143;28;20493;-82
2023/09/30 01:31:27;;;;;;;9.80;2.85;;;;;;;12.05;100.00;93885.19;2096781;28;20023;-80
2023/09/30 01:32:28;;;;;;;10.35;3.47;;;;;;;12.12;100.00;93885.09;2102630;28;20097;-80
2023/09/30 01:33:30;;;;;;;12.00;3.05;;;;;;;12.00;100.00;93878.38;2100605;28;20020;-81
2023/09/30 01:34:31;;;;;;;9.48;2.85;;;;;;;11.90;100.00;93881.97;2087942;28;20029;-81
2023/09/30 01:35:32;;;;;;;9.57;2.90;;;;;;;11.91;100.00;93878.13;2089042;28;20383;-79
2023/09/30 01:36:33;;;;;;;7.05;2.70;;;;;;;12.00;100.00;93881.03;2088760;28;20049;-80
2023/09/30 01:37:34;;;;;;;11.30;3.10;;;;;;;11.96;100.00;93882.25;2091355;28;20127;-82
2023/09/30 01:38:36;;;;;;;10.32;3.10;;;;;;;11.91;100.00;93882.72;2088623;28;20492;-80
2023/09/30 01:39:37;;;;;;;6.28;2.38;;;;;;;11.89;100.00;93874.31;2096432;28;20432;-81
2023/09/30 01:40:38;;;;;;;10.05;2.92;;;;;;;11.92;100.00;93876.19;2089115;28;20115;-81
2023/09/30 01:41:40;;;;;;;7.75;2.60;;;;;;;11.92;100.00;93870.84;2084449;28;20251;-81
2023/09/30 01:42:42;;;;;;;9.40;3.50;;;;;;;11.86;100.00;93875.91;2089212;28;20025;-81
2023/09/30 01:43:48;;;;;;;9.88;3.00;;;;;;;11.78;100.00;93879.81;2080559;28;20018;-81
2023/09/30 01:44:49;;;;;;;11.68;2.80;;;;;;;11.66;100.00;93869.63;2092988;28;20239;-80
2023/09/30 01:45:50;;;;;;;10.63;3.17;;;;;;;11.53;100.00;93872.84;2080555;28;20017;-82
2023/09/30 01:46:51;;;;;;;10.45;2.70;;;;;;;11.53;100.00;93872.09;2094239;28;20040;-82
2023/09/30 01:47:52;;;;;;;8.20;2.58;;;;;;;11.40;100.00;93869.19;2105628;28;20020;-82
2023/09/30 01:48:53;;;;;;;8.45;2.90;;;;;;;11.35;100.00;93867.72;2106126;28;20024;-81
2023/09/30 01:49:54;;;;;;;11.68;2.90;;;;;;;11.40;100.00;93871.13;2099799;28;20028;-80
2023/09/30 01:50:55;;;;;;;8.52;2.78;;;;;;;11.47;100.00;93873.72;2096877;28;20486;-80
2023/09/30 01:51:57;;;;;;;11.35;3.30;;;;;;;11.46;100.00;93866.84;2092621;28;20043;-81
2023/09/30 01:52:58;;;;;;;8.30;3.25;;;;;;;11.45;100.00;93855.38;2091659;28;20025;-80
2023/09/30 01:53:58;;;;;;;10.80;3.08;;;;;;;11.35;100.00;93861.63;2094221;28;20489;-82
2023/09/30 01:54:59;;;;;;;9.63;3.65;;;;;;;11.35;100.00;93866.97;2080666;28;20032;-80
2023/09/30 01:56:00;;;;;;;11.82;3.53;;;;;;;11.24;100.00;93869.03;2089011;28;20055;-82
2023/09/30 01:57:02;;;;;;;9.10;3.20;;;;;;;11.24;100.00;93863.69;2094926;28;20151;-81
2023/09/30 01:58:03;;;;;;;9.80;3.10;;;;;;;11.14;100.00;93867.22;2090079;28;20021;-80
2023/09/30 01:59:04;;;;;;;9.80;3.25;;;;;;;11.17;100.00;93859.16;2090076;28;20017;-80
2023/09/30 02:00:08;;;;;;;7.78;2.65;;;;;;;11.03;100.00;93860.09;2088913;28;20441;-80
2023/09/30 02:01:09;;;;;;;9.65;2.95;;;;;;;11.07;100.00;93860.81;2081662;28;20029;-80
2023/09/30 02:02:10;;;;;;;10.45;3.00;;;;;;;11.13;100.00;93858.44;2096388;28;20526;-81
2023/09/30 02:03:11;;;;;;;10.13;3.10;;;;;;;11.18;100.00;93854.56;2088669;28;20108;-80
2023/09/30 02:04:23;;;;;;;10.65;3.13;;;;;;;11.20;100.00;93861.06;2080881;28;20025;-80
2023/09/30 02:05:24;;;;;;;8.93;3.40;;;;;;;11.14;100.00;93859.97;2089835;28;20468;-81
2023/09/30 02:06:26;;;;;;;10.30;2.92;;;;;;;11.08;100.00;93858.91;2087302;28;20032;-81
2023/09/30 02:07:27;;;;;;;8.50;2.85;;;;;;;11.15;100.00;93866.06;2072793;28;20506;-80
2023/09/30 02:08:28;;;;;;;8.00;2.78;;;;;;;11.16;100.00;93864.94;2085152;28;20127;-80
2023/09/30 02:09:29;;;;;;;10.45;3.20;;;;;;;11.14;100.00;93869.91;2089123;28;20032;-81
2023/09/30 02:10:30;;;;;;;8.43;2.83;;;;;;;11.26;100.00;93874.75;2096898;28;20033;-82
2023/09/30 02:11:31;;;;;;;6.50;2.45;;;;;;;11.06;100.00;93877.25;2096933;28;20017;-81
2023/09/30 02:12:32;;;;;;;6.18;2.35;;;;;;;11.17;100.00;93877.16;2097216;28;20081;-80
2023/09/30 02:13:35;;;;;;;6.85;2.40;;;;;;;11.15;100.00;93876.78;2088790;28;20501;-80
2023/09/30 02:14:38;;;;;;;10.88;3.00;;;;;;;11.17;100.00;93883.25;2088668;28;20017;-80
2023/09/30 02:15:42;;;;;;;10.20;3.30;;;;;;;10.84;100.00;93880.19;2087717;28;20052;-81
2023/09/30 02:16:43;;;;;;;12.35;2.95;;;;;;;10.91;100.00;93884.69;2105155;28;20465;-81
2023/09/30 02:17:45;;;;;;;8.13;2.60;;;;;;;11.01;100.00;93888.41;2088692;28;20028;-81
2023/09/30 02:18:47;;;;;;;6.80;2.72;;;;;;;11.13;100.00;93889.81;2080400;28;20463;-81
2023/09/30 02:19:48;;;;;;;8.85;2.90;;;;;;;11.09;100.00;93881.81;2088784;28;20028;-80
2023/09/30 02:20:50;;;;;;;9.52;2.97;;;;;;;11.02;100.00;93888.00;2096828;28;20039;-81
2023/09/30 02:23:21;;;;;;;;;;;;;;;10.63;100.00;93882.31;2139404;27;20264;-80
2023/09/30 02:24:22;;;;;;;7.57;2.58;;;;;;;10.57;100.00;93882.72;2129842;27;19914;-82
2023/09/30 02:25:25;;;;;;;10.82;3.05;;;;;;;10.54;100.00;93880.09;2106460;28;20028;-80
2023/09/30 02:26:29;;;;;;;13.63;3.08;;;;;;;10.55;100.00;93878.94;2114178;27;20445;-81
2023/09/30 02:27:29;;;;;;;7.93;2.80;;;;;;;10.45;100.00;93877.88;2113340;27;20035;-81
2023/09/30 02:28:34;;;;;;;7.38;2.53;;;;;;;10.50;100.00;93882.03;2118608;28;20019;-81
2023/09/30 02:29:35;;;;;;;9.98;2.72;;;;;;;10.61;100.00;93880.00;2121723;27;20019;-82
2023/09/30 02:30:36;;;;;;;5.93;2.67;;;;;;;10.68;100.00;93884.56;2112813;27;20464;-80
2023/09/30 02:31:37;;;;;;;13.15;3.20;;;;;;;10.67;100.00;93885.69;2113115;27;20400;-82
2023/09/30 02:32:39;;;;;;;7.82;2.95;;;;;;;10.64;100.00;93891.84;2121487;27;20015;-82
2023/09/30 02:33:40;;;;;;;8.43;2.80;;;;;;;10.65;100.00;93894.09;2118864;27;20035;-82
2023/09/30 02:34:44;;;;;;;11.07;2.83;;;;;;;10.67;100.00;93888.34;2121172;27;20043;-80
2023/09/30 02:35:45;;;;;;;6.47;2.47;;;;;;;10.57;100.00;93893.41;2112914;28;20135;-82
2023/09/30 02:36:46;;;;;;;12.98;3.35;;;;;;;10.72;100.00;93894.06;2104326;28;20055;-81
2023/09/30 02:37:47;;;;;;;8.60;3.00;;;;;;;10.61;100.00;93887.28;2104168;28;20028;-81
2023/09/30 02:38:48;;;;;;;7.20;3.22;;;;;;;10.67;100.00;93888.34;2112628;28;20035;-81
2023/09/30 02:39:49;;;;;;;9.98;3.10;;;;;;;10.66;100.00;93878.81;2122496;27;20491;-82
2023/09/30 02:40:51;;;;;;;8.18;2.50;;;;;;;10.79;100.00;93885.19;2125565;27;20030;-80
2023/09/30 02:41:52;;;;;;;9.38;3.13;;;;;;;10.81;100.00;93880.97;2125224;27;20081;-81
2023/09/30 02:42:53;;;;;;;8.45;2.58;;;;;;;10.92;100.00;93883.53;2121204;27;20051;-81
2023/09/30 02:43:54;;;;;;;7.93;3.28;;;;;;;10.92;100.00;93878.16;2113453;28;20107;-80
2023/09/30 02:44:55;;;;;;;10.80;3.00;;;;;;;10.93;100.00;93876.25;2112429;28;20035;-81
2023/09/30 02:45:57;;;;;;;7.88;3.08;;;;;;;10.86;100.00;93876.34;2112779;28;20444;-81
2023/09/30 02:46:58;;;;;;;8.15;3.05;;;;;;;10.83;100.00;93875.97;2122059;27;20050;-81
2023/09/30 02:47:59;;;;;;;10.20;3.08;;;;;;;10.95;100.00;93877.38;2121237;27;20019;-81
2023/09/30 02:49:03;;;;;;;9.75;2.90;;;;;;;11.03;100.00;93876.16;2112790;28;20039;-82
2023/09/30 02:50:08;;;;;;;8.25;2.83;;;;;;;11.01;100.00;93875.78;2102352;27;20031;-81
2023/09/30 02:51:11;;;;;;;9.35;3.05;;;;;;;11.05;100.00;93881.84;2110368;28;20060;-80
2023/09/30 02:52:12;;;;;;;11.63;2.92;;;;;;;11.02;100.00;93885.34;2110766;28;20020;-81
2023/09/30 02:53:14;;;;;;;10.88;3.35;;;;;;;11.12;100.00;93888.28;2120945;27;20094;-82
2023/09/30 02:54:16;;;;;;;11.18;3.00;;;;;;;11.11;100.00;93882.19;2121331;28;20023;-81
2023/09/30 02:55:17;;;;;;;10.93;3.85;;;;;;;11.12;100.00;93878.34;2108662;27;20031;-81
2023/09/30 02:56:19;;;;;;;9.10;2.70;;;;;;;11.18;100.00;93894.72;2112721;27;20026;-81
2023/09/30 02:57:20;;;;;;;10.93;3.08;;;;;;;11.16;100.00;93892.44;2105961;28;20102;-81
2023/09/30 02:58:22;;;;;;;7.75;2.70;;;;;;;11.16;100.00;93897.78;2125778;27;20019;-81
2023/09/30 02:59:23;;;;;;;7.10;2.85;;;;;;;11.17;100.00;93890.53;2112717;28;20036;-81
2023/09/30 03:00:25;;;;;;;9.07;3.17;;;;;;;11.14;100.00;93883.28;2103935;28;20028;-81
2023/09/30 03:01:26;;;;;;;9.35;3.13;;;;;;;11.27;100.00;93884.28;2108826;28;20069;-81
2023/09/30 03:02:28;;;;;;;7.93;3.17;;;;;;;11.16;100.00;93891.69;2112636;28;20048;-82
2023/09/30 03:03:30;;;;;;;9.43;3.28;;;;;;;11.28;100.00;93885.78;2110663;27;20031;-82
2023/09/30 03:04:32;;;;;;;6.10;2.50;;;;;;;11.30;100.00;93878.13;2121511;27;20072;-79
2023/09/30 03:05:33;;;;;;;8.80;2.92;;;;;;;11.31;100.00;93883.06;2129208;27;20395;-80
2023/09/30 03:06:38;;;;;;;10.70;3.00;;;;;;;11.19;100.00;93883.59;2129352;27;20027;-81
2023/09/30 03:07:41;;;;;;;9.73;3.47;;;;;;;11.12;100.00;93888.28;2129322;27;20023;-82
2023/09/30 03:08:42;;;;;;;11.00;3.10;;;;;;;11.18;100.00;93887.44;2112838;27;20047;-81
2023/09/30 03:09:43;;;;;;;12.07;3.20;;;;;;;11.19;100.00;93893.53;2112427;28;20445;-80
2023/09/30 03:10:44;;;;;;;10.38;3.38;;;;;;;11.19;100.00;93898.91;2103878;28;20028;-82
2023/09/30 03:11:46;;;;;;;9.73;2.80;;;;;;;11.26;100.00;93898.81;2103934;28;20024;-82
2023/09/30 03:12:49;;;;;;;10.63;2.92;;;;;;;11.42;100.00;93896.34;2120239;28;20019;-83
2023/09/30 03:13:50;;;;;;;9.75;3.60;;;;;;;11.39;100.00;93889.09;2110936;27;20150;-80
2023/09/30 03:14:52;;;;;;;10.32;2.50;;;;;;;11.39;100.00;93893.72;2129329;27;20141;-81
2023/09/30 03:15:53;;;;;;;10.75;3.40;;;;;;;11.48;100.00;93889.38;2129351;27;20052;-82
2023/09/30 03:16:54;;;;;;;10.63;3.10;;;;;;;11.31;100.00;93882.31;2108355;28;20017;-81
2023/09/30 03:17:55;;;;;;;11.77;3.20;;;;;;;11.21;100.00;93888.56;2112529;27;20692;-82
2023/09/30 03:18:56;;;;;;;11.25;3.17;;;;;;;11.18;100.00;93895.47;2112135;28;20047;-81
2023/09/30 03:20:01;;;;;;;11.23;3.20;;;;;;;11.26;100.00;93891.56;2097105;28;20056;-81
2023/09/30 03:21:08;;;;;;;13.57;3.30;;;;;;;11.37;100.00;93894.13;2105856;28;20027;-81
2023/09/30 03:22:11;;;;;;;9.20;3.28;;;;;;;11.35;100.00;93897.19;2099488;28;20086;-82
2023/09/30 03:23:14;;;;;;;10.77;3.50;;;;;;;11.35;100.00;93893.75;2104079;28;20045;-81
2023/09/30 03:24:14;;;;;;;10.00;3.05;;;;;;;11.31;100.00;93901.81;2112340;28;20541;-82
2023/09/30 03:25:17;;;;;;;8.07;3.20;;;;;;;11.43;100.00;93895.19;2099703;28;20032;-81
2023/09/30 03:26:20;;;;;;;10.77;3.40;;;;;;;11.41;100.00;93904.75;2112564;28;20100;-82
2023/09/30 03:27:23;;;;;;;11.98;3.78;;;;;;;11.34;100.00;93898.34;2120349;27;20027;-81
2023/09/30 03:28:24;;;;;;;11.50;3.25;;;;;;;11.43;100.00;93895.19;2119556;28;20079;-79
2023/09/30 03:29:26;;;;;;;10.27;3.83;;;;;;;11.50;100.00;93897.00;2112328;28;20023;-81
2023/09/30 03:30:27;;;;;;;16.23;3.60;;;;;;;11.37;100.00;93896.78;2126243;27;20041;-82
2023/09/30 03:31:28;;;;;;;11.77;3.38;;;;;;;11.40;100.00;93900.56;2104018;28;20024;-80
2023/09/30 03:32:29;;;;;;;13.75;3.35;;;;;;;11.39;100.00;93885.69;2112209;28;20069;-82
2023/09/30 03:33:34;;;;;;;12.93;4.10;;;;;;;11.37;100.00;93893.34;2120665;28;20015;-82
2023/09/30 03:34:36;;;;;;;12.75;3.67;;;;;;;11.47;100.00;93895.13;2099328;28;20054;-81
2023/09/30 03:35:37;;;;;;;9.98;3.40;;;;;;;11.47;100.00;93895.13;2105713;27;20027;-82
2023/09/30 03:36:40;;;;;;;11.68;3.22;;;;;;;11.51;100.00;93887.81;2101619;28;20082;-82
2023/09/30 03:37:41;;;;;;;14.18;4.18;;;;;;;11.46;100.00;93890.94;2099034;28;20111;-81
2023/09/30 03:38:42;;;;;;;11.85;3.40;;;;;;;11.44;100.00;93893.25;2102974;28;20099;-81
2023/09/30 03:39:43;;;;;;;12.18;3.50;;;;;;;11.41;100.00;93896.72;2098484;28;20024;-80
2023/09/30 03:40:47;;;;;;;7.10;3.05;;;;;;;11.34;100.00;93893.00;2098310;28;20024;-81
2023/09/30 03:41:48;;;;;;;13.02;3.72;;;;;;;11.28;100.00;93891.13;2106916;28;20064;-81
2023/09/30 03:42:49;;;;;;;8.40;3.95;;;;;;;11.39;100.00;93883.00;2098110;28;20692;-82
2023/09/30 03:43:50;;;;;;;11.50;3.20;;;;;;;11.39;100.00;93886.44;2090451;28;20036;-80
2023/09/30 03:44:51;;;;;;;13.75;3.33;;;;;;;11.46;100.00;93877.56;2101684;28;20123;-82
2023/09/30 03:45:53;;;;;;;15.20;4.20;;;;;;;11.28;100.00;93878.53;2121374;27;20109;-81
2023/09/30 03:46:54;;;;;;;11.43;3.70;;;;;;;11.36;100.00;93876.53;2123426;27;20023;-80
2023/09/30 03:47:57;;;;;;;15.48;5.35;;;;;;;11.34;100.00;93871.56;2106517;28;20103;-81
2023/09/30 03:48:59;;;;;;;13.73;4.15;;;;;;;11.37;100.00;93872.69;2091251;28;20048;-82
2023/09/30 03:50:00;;;;;;;10.85;3.97;;;;;;;11.42;100.00;93866.91;2089944;28;20120;-81
2023/09/30 03:51:13;;;;;;;12.63;3.80;;;;;;;11.39;100.00;93854.31;2089967;28;20033;-80
2023/09/30 03:52:14;;;;;;;16.92;4.00;;;;;;;11.45;100.00;93860.72;2105238;28;20496;-81
2023/09/30 03:53:15;;;;;;;13.32;3.72;;;;;;;11.51;100.00;93861.81;2097996;28;20020;-81
2023/09/30 03:54:17;;;;;;;12.40;4.07;;;;;;;11.69;100.00;93860.81;2098207;28;20115;-79
2023/09/30 03:55:20;;;;;;;11.35;4.03;;;;;;;11.59;100.00;93868.59;2102581;28;20107;-80
2023/09/30 03:56:22;;;;;;;14.00;3.83;;;;;;;11.44;100.00;93867.25;2106629;28;20039;-81
2023/09/30 03:57:23;;;;;;;14.05;3.80;;;;;;;11.45;100.00;93870.66;2106014;28;20020;-80
2023/09/30 03:58:24;;;;;;;13.45;4.10;;;;;;;11.43;100.00;93857.69;2104601;28;20055;-81
2023/09/30 03:59:26;;;;;;;11.32;3.88;;;;;;;11.36;100.00;93857.78;2098013;28;20032;-80
2023/09/30 04:00:28;;;;;;;10.10;3.45;;;;;;;11.28;100.00;93856.34;2095464;28;20105;-81
2023/09/30 04:01:30;;;;;;;12.77;4.80;;;;;;;11.38;100.00;93847.44;2106355;28;20069;-82
2023/09/30 04:02:32;;;;;;;17.42;4.15;;;;;;;11.38;100.00;93849.38;2106538;28;20507;-81
2023/09/30 04:03:34;;;;;;;12.95;3.47;;;;;;;11.31;100.00;93850.19;2106231;28;20163;-82
2023/09/30 04:04:36;;;;;;;16.58;4.30;;;;;;;11.28;100.00;93851.78;2114767;28;20252;-82
2023/09/30 04:05:37;;;;;;;11.02;4.13;;;;;;;11.10;100.00;93849.28;2121689;27;20707;-82
2023/09/30 04:06:38;;;;;;;13.43;4.82;;;;;;;11.17;100.00;93853.06;2114772;27;20031;-82
2023/09/30 04:07:41;;;;;;;16.85;4.40;;;;;;;11.23;100.00;93851.44;2114632;28;20019;-81
2023/09/30 04:08:43;;;;;;;10.32;3.70;;;;;;;11.14;100.00;93854.59;2111533;27;21031;-81
2023/09/30 04:09:44;;;;;;;9.48;3.90;;;;;;;11.04;100.00;93850.91;2106353;28;20358;-80
2023/09/30 04:10:45;;;;;;;11.50;3.70;;;;;;;11.18;100.00;93851.91;2106074;28;20156;-82
2023/09/30 04:11:47;;;;;;;11.75;3.95;;;;;;;11.14;100.00;93857.28;2106062;28;20043;-82
2023/09/30 04:12:48;;;;;;;11.95;3.83;;;;;;;11.19;100.00;93861.44;2089793;28;20032;-82
2023/09/30 04:13:50;;;;;;;14.35;4.72;;;;;;;11.25;100.00;93871.31;2097799;28;20036;-80
2023/09/30 04:14:52;;;;;;;11.52;3.83;;;;;;;11.16;100.00;93870.28;2098339;28;20048;-82
2023/09/30 04:15:53;;;;;;;12.10;3.53;;;;;;;11.18;100.00;93868.72;2098039;28;20021;-81
2023/09/30 04:16:54;;;;;;;13.52;4.10;;;;;;;11.13;100.00;93881.78;2097811;28;20024;-80
2023/09/30 04:17:55;;;;;;;14.50;4.47;;;;;;;11.15;100.00;93888.25;2106472;28;20085;-81
2023/09/30 04:18:56;;;;;;;13.63;4.28;;;;;;;11.15;100.00;93885.59;2107471;28;20024;-81
2023/09/30 04:19:57;;;;;;;12.10;3.63;;;;;;;11.28;100.00;93888.47;2090649;28;20024;-81
2023/09/30 04:20:58;;;;;;;13.05;3.92;;;;;;;11.33;100.00;93883.44;2089735;28;20496;-82
2023/09/30 04:22:00;;;;;;;11.57;3.65;;;;;;;11.35;100.00;93880.34;2106385;28;20495;-79
2023/09/30 04:23:02;;;;;;;11.20;3.63;;;;;;;11.32;100.00;93878.47;2111465;28;20077;-80
2023/09/30 04:24:05;;;;;;;11.45;3.78;;;;;;;11.23;100.00;93870.19;2097783;28;20488;-82
2023/09/30 04:25:10;;;;;;;13.43;4.13;;;;;;;11.18;100.00;93876.72;2104698;28;20044;-82
2023/09/30 04:26:11;;;;;;;12.15;3.70;;;;;;;11.26;100.00;93875.50;2107316;28;20054;-81
2023/09/30 04:27:12;;;;;;;12.02;3.75;;;;;;;10.96;100.00;93876.22;2104405;28;20097;-82
2023/09/30 04:28:13;;;;;;;13.23;3.88;;;;;;;11.00;100.00;93870.84;2098908;28;20438;-82
2023/09/30 04:29:14;;;;;;;12.00;3.25;;;;;;;10.92;100.00;93872.06;2106100;28;20455;-81
2023/09/30 04:30:16;;;;;;;8.85;3.38;;;;;;;11.05;100.00;93863.13;2097452;28;20029;-81
2023/09/30 04:31:18;;;;;;;12.18;3.40;;;;;;;11.05;100.00;93873.06;2097543;28;20024;-81
2023/09/30 04:32:23;;;;;;;9.43;3.22;;;;;;;10.99;100.00;93874.66;2101751;28;20342;-81
2023/09/30 04:33:26;;;;;;;12.73;4.00;;;;;;;10.93;100.00;93876.25;2098558;28;20039;-81
2023/09/30 04:34:27;;;;;;;9.98;3.75;;;;;;;10.89;100.00;93880.88;2106243;28;20028;-82
2023/09/30 04:35:30;;;;;;;10.48;3.53;;;;;;;10.94;100.00;93870.53;2101612;28;20024;-81
2023/09/30 04:36:32;;;;;;;9.52;3.78;;;;;;;11.02;100.00;93876.56;2106618;28;20462;-82
2023/09/30 04:37:34;;;;;;;12.68;3.90;;;;;;;11.05;100.00;93887.19;2097902;28;20402;-81
2023/09/30 04:38:37;;;;;;;10.80;3.70;;;;;;;11.03;100.00;93881.50;2092100;28;20032;-80
2023/09/30 04:39:38;;;;;;;9.95;3.50;;;;;;;11.08;100.00;93883.72;2098615;28;20057;-81
2023/09/30 04:40:39;;;;;;;16.25;3.80;;;;;;;10.95;100.00;93884.66;2112150;27;20019;-82
2023/09/30 04:41:41;;;;;;;10.63;4.05;;;;;;;11.05;100.00;93887.19;2113832;28;20054;-80
2023/09/30 04:42:44;;;;;;;12.77;3.65;;;;;;;11.08;100.00;93896.34;2121641;27;20049;-82
2023/09/30 04:43:45;;;;;;;10.63;3.38;;;;;;;10.99;100.00;93896.06;2106230;28;20028;-81
2023/09/30 04:44:46;;;;;;;9.93;3.33;;;;;;;11.08;100.00;93889.09;2098069;28;20548;-82
2023/09/30 04:45:49;;;;;;;13.73;3.65;;;;;;;11.07;100.00;93900.94;2104415;28;20107;-82
2023/09/30 04:46:50;;;;;;;11.82;3.65;;;;;;;11.22;100.00;93900.78;2114243;27;20707;-82
2023/09/30 04:47:56;;;;;;;8.25;3.60;;;;;;;11.19;100.00;93898.91;2114476;28;20019;-82